createdAt,value
2023-05-15T00:02:08.742Z,28.60
2023-05-15T00:04:37.734Z,28.42
2023-05-15T00:07:06.984Z,28.92
2023-05-15T00:09:36.198Z,28.75
2023-05-15T00:12:05.196Z,28.61
2023-05-15T00:14:34.033Z,28.34
2023-05-15T00:17:04.097Z,28.17
2023-05-15T00:19:32.798Z,28.15
2023-05-15T00:22:01.794Z,28.23
2023-05-15T00:24:30.624Z,28.25
2023-05-15T00:27:01.317Z,28.20
2023-05-15T00:29:30.152Z,28.54
2023-05-15T00:31:59.107Z,28.19
2023-05-15T00:34:28.394Z,28.37
2023-05-15T00:36:57.719Z,28.21
2023-05-15T00:39:26.680Z,28.37
2023-05-15T00:42:00.692Z,27.78
2023-05-15T00:44:35.254Z,27.68
2023-05-15T00:47:05.967Z,27.49
2023-05-15T00:49:36.528Z,27.69
2023-05-15T00:52:08.906Z,27.49
2023-05-15T00:54:37.998Z,27.47
2023-05-15T00:57:09.256Z,27.09
2023-05-15T00:59:40.670Z,27.27
2023-05-15T01:02:11.762Z,26.71
2023-05-15T01:04:41.280Z,26.65
2023-05-15T01:07:10.126Z,26.28
2023-05-15T01:09:40.702Z,26.19
2023-05-15T01:12:11.291Z,26.33
2023-05-15T01:14:40.179Z,26.46
2023-05-15T01:17:09.427Z,26.20
2023-05-15T01:19:39.345Z,26.27
2023-05-15T01:22:22.906Z,25.62
2023-05-15T01:25:18.200Z,24.79
2023-05-15T01:27:53.303Z,25.34
2023-05-15T01:30:29.807Z,25.28
2023-05-15T01:33:13.488Z,24.26
2023-05-15T01:35:51.452Z,24.32
2023-05-15T01:38:45.622Z,23.73
2023-05-15T01:41:25.245Z,23.40
2023-05-15T01:44:01.625Z,24.03
2023-05-15T01:46:32.301Z,23.31
2023-05-15T01:49:03.945Z,22.22
2023-05-15T01:51:34.083Z,21.23
2023-05-15T01:54:04.389Z,21.75
2023-05-15T01:56:36.726Z,21.18
2023-05-15T01:59:06.881Z,20.27
2023-05-15T02:01:39.503Z,20.44
2023-05-15T02:04:10.122Z,19.40
2023-05-15T02:06:39.781Z,19.51
2023-05-15T02:09:11.607Z,19.67
2023-05-15T02:11:42.945Z,19.71
2023-05-15T02:14:13.396Z,18.04
2023-05-15T02:16:42.396Z,17.93
2023-05-15T02:19:11.653Z,17.97
2023-05-15T02:21:40.484Z,18.26
2023-05-15T02:24:09.534Z,18.26
2023-05-15T02:27:33.717Z,17.90
2023-05-15T02:30:30.075Z,18.02
2023-05-15T02:33:20.910Z,17.88
2023-05-15T02:35:55.263Z,17.60
2023-05-15T02:38:49.204Z,17.66
2023-05-15T02:41:18.713Z,16.99
2023-05-15T02:43:51.091Z,17.40
2023-05-15T02:46:21.966Z,16.67
2023-05-15T02:48:52.520Z,16.52
2023-05-15T02:51:21.750Z,15.85
2023-05-15T02:53:53.365Z,16.43
2023-05-15T02:56:22.903Z,16.02
2023-05-15T02:58:51.686Z,15.79
2023-05-15T03:01:21.110Z,15.98
2023-05-15T03:03:50.465Z,16.25
2023-05-15T03:06:19.509Z,15.54
2023-05-15T03:08:48.452Z,15.42
2023-05-15T03:11:19.739Z,15.81
2023-05-15T03:13:48.637Z,15.65
2023-05-15T03:16:17.442Z,15.63
2023-05-15T03:18:47.070Z,15.25
2023-05-15T03:21:16.223Z,15.51
2023-05-15T03:23:45.204Z,15.77
2023-05-15T03:26:14.104Z,15.95
2023-05-15T03:28:42.908Z,16.12
2023-05-15T03:31:12.024Z,16.17
2023-05-15T03:33:41.509Z,16.13
2023-05-15T03:36:10.436Z,16.33
2023-05-15T03:38:39.421Z,16.48
2023-05-15T03:41:11.129Z,15.68
2023-05-15T03:43:40.018Z,15.87
2023-05-15T03:46:08.855Z,15.70
2023-05-15T03:48:37.665Z,15.58
2023-05-15T03:51:08.117Z,16.08
2023-05-15T03:53:36.951Z,15.58
2023-05-15T03:56:06.563Z,15.40
2023-05-15T03:58:35.476Z,15.40
2023-05-15T04:01:05.450Z,15.22
2023-05-15T04:03:34.795Z,14.62
2023-05-15T04:06:03.714Z,14.78
2023-05-15T04:08:32.565Z,14.99
2023-05-15T04:11:01.549Z,14.48
2023-05-15T04:13:30.364Z,14.35
2023-05-15T04:16:00.541Z,14.68
2023-05-15T04:18:29.530Z,14.37
2023-05-15T04:20:58.405Z,14.60
2023-05-15T04:23:27.218Z,14.03
2023-05-15T04:25:56.012Z,14.10
2023-05-15T04:28:24.992Z,14.26
2023-05-15T04:30:53.880Z,14.52
2023-05-15T04:33:22.641Z,13.74
2023-05-15T04:35:51.616Z,13.69
2023-05-15T04:38:20.476Z,13.46
2023-05-15T04:40:49.325Z,12.97
2023-05-15T04:43:18.191Z,12.96
2023-05-15T04:45:47.029Z,12.91
2023-05-15T04:48:16.033Z,13.17
2023-05-15T04:50:44.755Z,12.41
2023-05-15T04:53:13.943Z,12.72
2023-05-15T04:55:42.723Z,12.83
2023-05-15T04:58:11.647Z,12.38
2023-05-15T05:00:40.906Z,12.59
2023-05-15T05:03:10.341Z,12.53
2023-05-15T05:05:39.269Z,13.32
2023-05-15T05:08:08.152Z,12.69
2023-05-15T05:10:36.938Z,12.38
2023-05-15T05:13:05.756Z,11.97
2023-05-15T05:15:34.637Z,12.26
2023-05-15T05:18:03.731Z,12.77
2023-05-15T05:20:32.654Z,12.67
2023-05-15T05:23:05.064Z,12.40
2023-05-15T05:25:39.311Z,12.34
2023-05-15T05:28:08.183Z,12.38
2023-05-15T05:30:37.069Z,12.30
2023-05-15T05:33:06.843Z,12.55
2023-05-15T05:35:35.671Z,12.59
2023-05-15T05:38:04.832Z,12.56
2023-05-15T05:40:33.853Z,12.37
2023-05-15T05:43:03.094Z,12.06
2023-05-15T05:45:31.962Z,12.43
2023-05-15T05:48:00.946Z,12.44
2023-05-15T05:50:29.971Z,11.88
2023-05-15T05:52:58.868Z,11.89
2023-05-15T05:55:27.965Z,12.25
2023-05-15T05:57:57.070Z,11.91
2023-05-15T06:00:27.005Z,12.05
2023-05-15T06:02:59.033Z,12.28
2023-05-15T06:05:28.376Z,11.72
2023-05-15T06:07:59.063Z,11.72
2023-05-15T06:10:27.959Z,12.15
2023-05-15T06:12:56.926Z,11.79
2023-05-15T06:15:26.840Z,11.79
2023-05-15T06:17:56.133Z,11.48
2023-05-15T06:20:25.743Z,11.33
2023-05-15T06:22:54.614Z,11.75
2023-05-15T06:25:23.481Z,11.64
2023-05-15T06:27:52.356Z,11.04
2023-05-15T06:30:21.152Z,11.62
2023-05-15T06:32:50.033Z,11.51
2023-05-15T06:35:19.592Z,11.70
2023-05-15T06:37:50.850Z,11.90
2023-05-15T06:40:19.899Z,11.55
2023-05-15T06:42:48.853Z,11.63
2023-05-15T06:45:17.875Z,10.96
2023-05-15T06:47:47.809Z,11.00
2023-05-15T06:50:16.727Z,11.10
2023-05-15T06:52:45.559Z,11.25
2023-05-15T06:55:14.398Z,11.22
2023-05-15T06:57:43.253Z,11.11
2023-05-15T07:00:13.784Z,10.95
2023-05-15T07:02:44.309Z,11.77
2023-05-15T07:05:15.099Z,12.23
2023-05-15T07:07:44.181Z,12.09
2023-05-15T07:10:12.951Z,11.85
2023-05-15T07:12:41.765Z,11.76
2023-05-15T07:15:11.181Z,11.26
2023-05-15T07:17:40.181Z,11.50
2023-05-15T07:20:09.513Z,11.93
2023-05-15T07:22:51.952Z,11.67
2023-05-15T07:25:26.204Z,11.71
2023-05-15T07:27:55.336Z,12.41
2023-05-15T07:30:24.523Z,12.81
2023-05-15T07:32:53.656Z,13.21
2023-05-15T07:35:22.771Z,14.10
2023-05-15T07:37:51.695Z,14.79
2023-05-15T07:40:20.569Z,14.55
2023-05-15T07:42:49.352Z,13.95
2023-05-15T07:45:18.274Z,14.26
2023-05-15T07:47:47.880Z,15.11
2023-05-15T07:50:17.940Z,15.31
2023-05-15T07:52:46.835Z,15.71
2023-05-15T07:55:15.779Z,15.79
2023-05-15T07:57:45.099Z,15.96
2023-05-15T08:00:15.577Z,15.94
2023-05-15T08:02:46.766Z,15.96
2023-05-15T08:05:15.906Z,16.12
2023-05-15T08:07:44.717Z,15.90
2023-05-15T08:10:13.680Z,16.17
2023-05-15T08:12:47.061Z,16.09
2023-05-15T08:15:16.031Z,16.02
2023-05-15T08:17:45.653Z,16.10
2023-05-15T08:20:14.744Z,16.49
2023-05-15T08:22:43.618Z,16.45
2023-05-15T08:25:12.373Z,16.66
2023-05-15T08:27:41.311Z,16.43
2023-05-15T08:30:10.528Z,16.57
2023-05-15T08:32:39.479Z,16.09
2023-05-15T08:35:08.918Z,15.99
2023-05-15T08:37:38.052Z,15.65
2023-05-15T08:40:08.494Z,15.48
2023-05-15T08:42:51.256Z,15.26
2023-05-15T08:45:20.980Z,15.22
2023-05-15T08:47:49.980Z,14.94
2023-05-15T08:50:19.929Z,14.89
2023-05-15T08:52:50.138Z,14.81
2023-05-15T08:55:19.170Z,14.99
2023-05-15T08:57:49.930Z,14.94
2023-05-15T09:00:22.781Z,15.17
2023-05-15T09:02:55.304Z,15.35
2023-05-15T09:05:25.748Z,15.22
2023-05-15T09:07:56.364Z,15.09
2023-05-15T09:10:25.604Z,15.08
2023-05-15T09:12:55.505Z,14.97
2023-05-15T09:15:26.310Z,14.93
2023-05-15T09:17:56.147Z,15.10
2023-05-15T09:20:35.900Z,15.00
2023-05-15T09:23:06.882Z,15.40
2023-05-15T09:25:45.468Z,15.22
2023-05-15T09:28:32.197Z,15.15
2023-05-15T09:31:03.471Z,15.14
2023-05-15T09:33:40.648Z,15.40
2023-05-15T09:36:10.653Z,15.39
2023-05-15T09:38:44.176Z,15.42
2023-05-15T09:41:13.054Z,15.31
2023-05-15T09:43:42.450Z,15.27
2023-05-15T09:46:15.487Z,15.43
2023-05-15T09:48:44.618Z,15.66
2023-05-15T09:51:21.738Z,15.88
2023-05-15T09:53:51.510Z,15.58
2023-05-15T09:56:20.247Z,15.76
2023-05-15T09:58:57.693Z,15.70
2023-05-15T10:01:28.365Z,15.60
2023-05-15T10:04:02.269Z,15.58
2023-05-15T10:06:39.490Z,15.91
2023-05-15T10:09:11.065Z,15.56
2023-05-15T10:11:45.391Z,15.88
2023-05-15T10:14:14.857Z,15.60
2023-05-15T10:16:44.476Z,16.12
2023-05-15T10:19:14.371Z,15.82
2023-05-15T10:21:43.239Z,15.89
2023-05-15T10:24:13.299Z,15.92
2023-05-15T10:26:44.043Z,16.24
2023-05-15T10:29:15.425Z,16.38
2023-05-15T10:31:44.679Z,16.31
2023-05-15T10:34:14.222Z,16.11
2023-05-15T10:36:44.022Z,15.94
2023-05-15T10:39:13.503Z,16.09
2023-05-15T10:41:43.456Z,16.41
2023-05-15T10:44:12.716Z,15.99
2023-05-15T10:46:41.867Z,16.09
2023-05-15T10:49:10.961Z,16.21
2023-05-15T10:51:41.120Z,16.30
2023-05-15T10:54:11.045Z,16.56
2023-05-15T10:56:40.626Z,16.62
2023-05-15T10:59:11.691Z,16.55
2023-05-15T11:01:42.917Z,16.59
2023-05-15T11:04:17.732Z,16.72
2023-05-15T11:06:48.487Z,16.59
2023-05-15T11:09:27.250Z,16.98
2023-05-15T11:11:58.599Z,16.96
2023-05-15T11:14:28.484Z,17.04
2023-05-15T11:16:58.956Z,17.33
2023-05-15T11:19:34.038Z,17.22
2023-05-15T11:22:21.620Z,17.00
2023-05-15T11:25:10.152Z,17.34
2023-05-15T11:27:46.909Z,17.17
2023-05-15T11:30:23.427Z,17.54
2023-05-15T11:32:59.144Z,17.55
2023-05-15T11:35:44.071Z,17.75
2023-05-15T11:38:17.132Z,17.58
2023-05-15T11:41:04.078Z,17.60
2023-05-15T11:43:35.757Z,17.92
2023-05-15T11:46:04.736Z,18.05
2023-05-15T11:48:35.639Z,17.96
2023-05-15T11:51:06.190Z,17.91
2023-05-15T11:53:36.304Z,18.10
2023-05-15T11:56:05.441Z,18.11
2023-05-15T11:58:34.529Z,18.16
2023-05-15T12:01:04.376Z,18.19
2023-05-15T12:03:36.946Z,18.37
2023-05-15T12:06:06.256Z,18.37
2023-05-15T12:08:39.670Z,18.45
2023-05-15T12:11:09.001Z,18.68
2023-05-15T12:13:38.027Z,18.54
2023-05-15T12:16:07.224Z,18.96
2023-05-15T12:18:36.571Z,19.09
2023-05-15T12:21:06.558Z,19.19
2023-05-15T12:23:35.590Z,19.11
2023-05-15T12:26:05.112Z,19.39
2023-05-15T12:28:36.993Z,19.42
2023-05-15T12:31:06.365Z,19.60
2023-05-15T12:33:35.486Z,19.89
2023-05-15T12:36:05.077Z,20.11
2023-05-15T12:38:35.536Z,20.14
2023-05-15T12:41:04.622Z,20.04
2023-05-15T12:43:33.857Z,20.51
2023-05-15T12:46:02.875Z,20.12
2023-05-15T12:48:33.185Z,20.05
2023-05-15T12:51:07.844Z,20.42
2023-05-15T12:53:40.251Z,20.50
2023-05-15T12:56:17.840Z,20.40
2023-05-15T12:58:48.189Z,20.37
2023-05-15T13:01:18.486Z,20.61
2023-05-15T13:03:48.843Z,21.00
2023-05-15T13:06:18.638Z,21.10
2023-05-15T13:08:49.297Z,21.20
2023-05-15T13:11:18.839Z,21.15
2023-05-15T13:13:49.929Z,21.21
2023-05-15T13:16:23.303Z,21.71
2023-05-15T13:18:52.865Z,21.25
2023-05-15T13:21:21.823Z,21.69
2023-05-15T13:23:52.279Z,21.83
2023-05-15T13:26:21.520Z,21.44
2023-05-15T13:28:50.680Z,21.77
2023-05-15T13:31:19.715Z,21.99
2023-05-15T13:33:49.797Z,21.88
2023-05-15T13:36:18.893Z,22.05
2023-05-15T13:38:47.993Z,22.22
2023-05-15T13:41:16.769Z,22.24
2023-05-15T13:43:45.742Z,22.36
2023-05-15T13:46:14.725Z,22.22
2023-05-15T13:48:44.507Z,22.60
2023-05-15T13:51:13.383Z,22.64
2023-05-15T13:53:46.404Z,22.91
2023-05-15T13:56:16.966Z,22.93
2023-05-15T13:58:46.251Z,22.96
2023-05-15T14:01:16.201Z,23.20
2023-05-15T14:03:46.276Z,23.08
2023-05-15T14:06:15.218Z,23.15
2023-05-15T14:08:44.234Z,23.32
2023-05-15T14:11:13.136Z,23.58
2023-05-15T14:13:43.179Z,23.52
2023-05-15T14:16:13.236Z,23.63
2023-05-15T14:18:42.159Z,23.37
2023-05-15T14:21:11.259Z,23.64
2023-05-15T14:23:40.176Z,23.57
2023-05-15T14:26:09.209Z,23.78
2023-05-15T14:28:38.125Z,23.85
2023-05-15T14:31:07.207Z,24.26
2023-05-15T14:33:36.047Z,23.88
2023-05-15T14:36:05.422Z,24.26
2023-05-15T14:38:34.398Z,24.71
2023-05-15T14:41:03.442Z,24.45
2023-05-15T14:43:32.363Z,24.28
2023-05-15T14:46:01.448Z,24.78
2023-05-15T14:48:30.677Z,24.33
2023-05-15T14:50:59.705Z,24.63
2023-05-15T14:53:28.789Z,24.97
2023-05-15T14:55:59.154Z,24.96
2023-05-15T14:58:28.602Z,25.37
2023-05-15T15:00:58.784Z,24.62
2023-05-15T15:03:29.491Z,25.51
2023-05-15T15:05:59.879Z,25.14
2023-05-15T15:08:29.081Z,24.86
2023-05-15T15:10:58.502Z,25.29
2023-05-15T15:13:27.897Z,25.35
2023-05-15T15:15:57.385Z,24.73
2023-05-15T15:18:26.914Z,25.21
2023-05-15T15:20:55.887Z,24.88
2023-05-15T15:23:24.804Z,24.87
2023-05-15T15:25:53.527Z,24.65
2023-05-15T15:28:22.320Z,25.00
2023-05-15T15:30:51.202Z,25.10
2023-05-15T15:33:20.006Z,24.49
2023-05-15T15:35:48.789Z,24.95
2023-05-15T15:38:17.746Z,24.94
2023-05-15T15:40:46.806Z,24.78
2023-05-15T15:43:15.576Z,24.88
2023-05-15T15:45:45.060Z,24.57
2023-05-15T15:48:14.186Z,24.73
2023-05-15T15:50:43.355Z,25.36
2023-05-15T15:53:12.429Z,24.99
2023-05-15T15:55:41.594Z,25.06
2023-05-15T15:58:10.877Z,24.64
2023-05-15T16:00:40.762Z,24.69
2023-05-15T16:03:09.971Z,24.70
2023-05-15T16:05:39.039Z,25.00
2023-05-15T16:08:07.958Z,25.24
2023-05-15T16:10:37.295Z,24.82
2023-05-15T16:13:06.308Z,24.95
2023-05-15T16:15:35.308Z,25.04
2023-05-15T16:18:04.310Z,25.14
2023-05-15T16:20:35.102Z,24.73
2023-05-15T16:23:04.312Z,24.97
2023-05-15T16:25:33.113Z,25.48
2023-05-15T16:28:01.935Z,25.40
2023-05-15T16:30:44.308Z,25.13
2023-05-15T16:33:18.880Z,24.58
2023-05-15T16:35:49.361Z,25.22
2023-05-15T16:38:19.468Z,24.99
2023-05-15T16:40:48.554Z,25.21
2023-05-15T16:43:17.569Z,25.30
2023-05-15T16:45:46.823Z,24.82
2023-05-15T16:48:15.857Z,25.00
2023-05-15T16:50:44.790Z,25.08
2023-05-15T16:53:15.483Z,25.52
2023-05-15T16:55:44.461Z,24.66
2023-05-15T16:58:13.581Z,25.21
2023-05-15T17:00:43.225Z,25.13
2023-05-15T17:03:13.352Z,25.08
2023-05-15T17:05:42.399Z,25.65
2023-05-15T17:08:11.296Z,25.22
2023-05-15T17:10:40.479Z,25.64
2023-05-15T17:13:09.297Z,25.66
2023-05-15T17:15:38.086Z,26.12
2023-05-15T17:18:07.102Z,25.96
2023-05-15T17:20:36.285Z,26.06
2023-05-15T17:23:05.347Z,25.95
2023-05-15T17:25:34.757Z,26.00
2023-05-15T17:28:03.546Z,26.32
2023-05-15T17:30:32.397Z,26.31
2023-05-15T17:33:01.616Z,26.35
2023-05-15T17:35:32.795Z,26.74
2023-05-15T17:38:02.206Z,26.44
2023-05-15T17:40:31.180Z,26.72
2023-05-15T17:43:00.017Z,26.42
2023-05-15T17:45:28.945Z,26.87
2023-05-15T17:48:04.055Z,27.03
2023-05-15T17:50:34.532Z,27.16
2023-05-15T17:53:04.582Z,27.17
2023-05-15T17:55:33.558Z,27.40
2023-05-15T17:58:02.544Z,26.93
2023-05-15T18:00:31.934Z,27.24
2023-05-15T18:03:01.824Z,27.17
2023-05-15T18:05:31.212Z,27.73
2023-05-15T18:08:02.173Z,27.38
2023-05-15T18:10:31.187Z,27.43
2023-05-15T18:13:00.057Z,27.83
2023-05-15T18:15:29.091Z,27.66
2023-05-15T18:17:58.561Z,27.93
2023-05-15T18:20:27.466Z,28.09
2023-05-15T18:22:56.420Z,27.90
2023-05-15T18:25:25.666Z,27.64
2023-05-15T18:27:54.632Z,28.39
2023-05-15T18:30:23.560Z,28.29
2023-05-15T18:32:52.504Z,28.25
2023-05-15T18:35:21.514Z,28.63
2023-05-15T18:37:50.454Z,28.44
2023-05-15T18:40:19.653Z,28.84
2023-05-15T18:42:49.350Z,28.66
2023-05-15T18:45:19.407Z,28.67
2023-05-15T18:47:50.117Z,29.13
2023-05-15T18:50:25.436Z,28.71
2023-05-15T18:52:54.363Z,28.56
2023-05-15T18:55:23.506Z,28.50
2023-05-15T18:57:52.475Z,28.82
2023-05-15T19:00:33.972Z,28.93
2023-05-15T19:03:07.207Z,29.12
2023-05-15T19:05:36.362Z,29.28
2023-05-15T19:08:05.362Z,29.17
2023-05-15T19:10:34.526Z,29.15
2023-05-15T19:13:03.423Z,29.49
2023-05-15T19:15:32.324Z,29.57
2023-05-15T19:18:01.623Z,29.61
2023-05-15T19:20:30.601Z,29.66
2023-05-15T19:22:59.676Z,30.08
2023-05-15T19:25:28.737Z,29.54
2023-05-15T19:27:57.755Z,29.85
2023-05-15T19:30:26.971Z,30.12
2023-05-15T19:32:56.067Z,30.17
2023-05-15T19:35:25.256Z,30.32
2023-05-15T19:37:54.300Z,30.34
2023-05-15T19:40:23.399Z,30.60
2023-05-15T19:42:52.577Z,30.19
2023-05-15T19:45:21.645Z,30.42
2023-05-15T19:47:50.661Z,30.83
2023-05-15T19:50:19.556Z,30.22
2023-05-15T19:52:48.555Z,30.68
2023-05-15T19:55:17.928Z,30.99
2023-05-15T19:57:47.044Z,30.93
2023-05-15T20:00:17.163Z,31.15
2023-05-15T20:02:46.493Z,31.34
2023-05-15T20:05:18.579Z,30.86
2023-05-15T20:07:47.564Z,31.14
2023-05-15T20:10:19.086Z,31.28
2023-05-15T20:12:48.654Z,31.51
2023-05-15T20:15:17.848Z,31.42
2023-05-15T20:17:47.188Z,31.80
2023-05-15T20:20:17.172Z,31.34
2023-05-15T20:22:46.530Z,31.90
2023-05-15T20:25:15.832Z,31.75
2023-05-15T20:27:44.929Z,31.36
2023-05-15T20:30:13.940Z,31.78
2023-05-15T20:32:43.011Z,31.72
2023-05-15T20:35:13.197Z,31.98
2023-05-15T20:37:43.557Z,31.84
2023-05-15T20:40:13.586Z,31.96
2023-05-15T20:42:42.619Z,32.49
2023-05-15T20:45:11.734Z,31.97
2023-05-15T20:47:40.998Z,31.81
2023-05-15T20:50:10.840Z,31.95
2023-05-15T20:52:40.098Z,32.34
2023-05-15T20:55:16.572Z,31.75
2023-05-15T20:57:46.878Z,31.83
2023-05-15T21:00:18.785Z,32.26
2023-05-15T21:02:48.019Z,31.72
2023-05-15T21:05:17.067Z,32.16
2023-05-15T21:07:46.090Z,32.25
2023-05-15T21:10:15.089Z,31.88
2023-05-15T21:12:44.208Z,32.10
2023-05-15T21:15:13.200Z,32.32
2023-05-15T21:17:42.124Z,32.03
2023-05-15T21:20:11.626Z,32.52
2023-05-15T21:22:41.667Z,32.43
2023-05-15T21:25:12.050Z,32.19
2023-05-15T21:27:42.624Z,32.52
2023-05-15T21:30:12.150Z,32.29
2023-05-15T21:32:41.197Z,32.60
2023-05-15T21:35:10.795Z,32.49
2023-05-15T21:37:39.842Z,32.53
2023-05-15T21:40:09.459Z,32.20
2023-05-15T21:42:38.298Z,32.25
2023-05-15T21:45:08.101Z,32.14
2023-05-15T21:47:37.061Z,32.48
2023-05-15T21:50:07.536Z,32.14
2023-05-15T21:52:36.456Z,32.40
2023-05-15T21:55:05.755Z,32.57
2023-05-15T21:57:34.850Z,32.27
2023-05-15T22:00:08.093Z,32.36
2023-05-15T22:02:37.246Z,32.61
2023-05-15T22:05:06.779Z,32.62
2023-05-15T22:07:35.805Z,32.54
2023-05-15T22:10:05.861Z,32.35
2023-05-15T22:12:35.330Z,32.53
2023-05-15T22:15:04.383Z,32.37
2023-05-15T22:17:36.803Z,32.09
2023-05-15T22:20:12.010Z,32.23
2023-05-15T22:22:43.122Z,32.37
2023-05-15T22:25:12.583Z,32.18
2023-05-15T22:27:41.966Z,32.10
2023-05-15T22:30:11.267Z,32.33
2023-05-15T22:32:41.762Z,32.39
2023-05-15T22:35:11.956Z,32.29
2023-05-15T22:37:42.715Z,32.31
2023-05-15T22:40:12.560Z,32.08
2023-05-15T22:42:41.622Z,31.75
2023-05-15T22:45:10.981Z,32.27
2023-05-15T22:47:39.958Z,32.05
2023-05-15T22:50:09.591Z,31.93
2023-05-15T22:52:39.245Z,31.47
2023-05-15T22:55:08.781Z,31.57
2023-05-15T22:57:37.872Z,31.43
2023-05-15T23:00:08.860Z,31.51
2023-05-15T23:02:38.933Z,31.37
2023-05-15T23:05:08.190Z,31.45
2023-05-15T23:07:37.656Z,31.48
2023-05-15T23:10:07.357Z,31.38
2023-05-15T23:12:36.328Z,31.12
2023-05-15T23:15:06.228Z,31.40
2023-05-15T23:17:36.233Z,31.24
2023-05-15T23:20:11.060Z,31.30
2023-05-15T23:22:40.117Z,31.15
2023-05-15T23:25:10.264Z,31.27
2023-05-15T23:27:39.213Z,31.15
2023-05-15T23:30:08.842Z,30.97
2023-05-15T23:32:37.792Z,30.81
2023-05-15T23:35:07.265Z,30.54
2023-05-15T23:37:36.445Z,30.66
2023-05-15T23:40:06.607Z,30.73
2023-05-15T23:42:35.529Z,30.51
2023-05-15T23:45:04.699Z,30.43
2023-05-15T23:47:34.843Z,30.45
2023-05-15T23:50:04.252Z,30.11
2023-05-15T23:52:33.624Z,30.10
2023-05-15T23:55:02.545Z,29.40
2023-05-15T23:57:32.362Z,29.46
